Portada
METAR-TAF:

METAR-TAF

Aeroports :

Morristown, Tennessee, Estats Units d'Amèrica

latitud: 36-10-46N, longitud: 083-22-32W, altitud: 400 m

Observació

L'informe es va fer fa 20 minuts, a les 00:35 UTC
Vent 3 kt del Nord
Temperatura 27°C
Humitat 62%
Pressió 1020 hPa
Visibilitat: 16.1 km
Cel clar

METAR: KMOR 080035Z AUTO 01003KT 10SM CLR 27/19 A3011 RMK A01

Hora: 19:55 (00:55 UTC)


TAF: manca

Observacions i pronòstics meteorològics de més de 4000 aeroports (METAR i TAF).

Les estacions disponibles són els punts grocs i vermells al mapa.

Posi el ratolí al punt desitjat per veure el nom de l'estació.

Feu clic per veure les observacions i els pronòstics meteorològics.

Per canviar el mapa: feu clic els botons verds amb una creu de color negre per apropar; al botó verd amb un guió per allunyar la imatge; o en les fletxes verdes per a mapes adjacents.


METAR-TAF: